createdAt,value
2019-05-29T00:00:30.861Z,2.63
2019-05-29T00:03:18.717Z,3.77
2019-05-29T00:06:08.061Z,3.50
2019-05-29T00:08:56.211Z,4.03
2019-05-29T00:11:43.926Z,6.47
2019-05-29T00:14:31.788Z,5.27
2019-05-29T00:17:19.660Z,5.67
2019-05-29T00:20:08.304Z,8.13
2019-05-29T00:22:56.271Z,4.73
2019-05-29T00:25:44.111Z,5.60
2019-05-29T00:28:31.932Z,5.73
2019-05-29T00:31:19.716Z,5.93
2019-05-29T00:34:08.885Z,6.47
2019-05-29T00:36:56.596Z,6.93
2019-05-29T00:39:44.496Z,7.23
2019-05-29T00:42:32.129Z,5.63
2019-05-29T00:45:20.213Z,6.33
2019-05-29T00:48:07.984Z,6.03
2019-05-29T00:50:55.558Z,6.63
2019-05-29T00:53:43.532Z,9.83
2019-05-29T00:56:31.256Z,9.53
2019-05-29T00:59:19.217Z,6.97
2019-05-29T01:02:07.321Z,9.63
2019-05-29T01:04:54.996Z,7.40
2019-05-29T01:07:42.806Z,8.57
2019-05-29T01:10:30.453Z,7.53
2019-05-29T01:13:19.212Z,7.77
2019-05-29T01:16:07.057Z,8.00
2019-05-29T01:18:56.320Z,9.00
2019-05-29T01:21:43.889Z,7.70
2019-05-29T01:24:31.918Z,8.33
2019-05-29T01:27:20.810Z,11.07
2019-05-29T01:30:09.386Z,9.97
2019-05-29T01:32:57.336Z,8.80
2019-05-29T01:35:45.224Z,7.97
2019-05-29T01:38:32.984Z,9.07
2019-05-29T01:41:21.470Z,8.03
2019-05-29T01:44:09.496Z,7.53
2019-05-29T01:46:57.610Z,9.63
2019-05-29T01:49:45.580Z,9.03
2019-05-29T01:52:33.575Z,11.93
2019-05-29T01:55:21.711Z,11.50
2019-05-29T01:58:09.869Z,14.40
2019-05-29T02:00:57.725Z,12.60
2019-05-29T02:03:45.713Z,10.60
2019-05-29T02:06:33.361Z,10.77
2019-05-29T02:09:22.041Z,11.80
2019-05-29T02:12:10.080Z,10.53
2019-05-29T02:14:58.048Z,9.97
2019-05-29T02:17:46.036Z,12.30
2019-05-29T02:20:33.788Z,13.50
2019-05-29T02:23:22.120Z,14.27
2019-05-29T02:26:10.178Z,15.73
2019-05-29T02:28:58.256Z,14.17
2019-05-29T02:31:45.858Z,15.43
2019-05-29T02:34:33.624Z,17.00
2019-05-29T02:37:22.253Z,18.70
2019-05-29T02:40:10.124Z,17.77
2019-05-29T02:42:57.779Z,17.83
2019-05-29T02:45:54.140Z,18.00
2019-05-29T02:48:35.245Z,19.87
2019-05-29T02:51:24.228Z,19.00
2019-05-29T02:54:12.281Z,21.60
2019-05-29T02:56:59.981Z,19.70
2019-05-29T02:59:47.725Z,19.73
2019-05-29T03:02:35.532Z,20.07
2019-05-29T03:05:23.881Z,23.20
2019-05-29T03:08:11.518Z,20.73
2019-05-29T03:10:58.951Z,23.47
2019-05-29T03:13:46.618Z,24.40
2019-05-29T03:16:34.934Z,24.53
2019-05-29T03:19:23.897Z,23.37
2019-05-29T03:22:11.779Z,23.83
2019-05-29T03:24:59.987Z,22.60
2019-05-29T03:27:47.869Z,24.73
2019-05-29T03:30:44.725Z,22.63
2019-05-29T03:33:27.406Z,27.60
2019-05-29T03:36:14.757Z,24.23
2019-05-29T03:39:03.035Z,25.77
2019-05-29T03:41:50.902Z,26.37
2019-05-29T03:44:38.877Z,24.63
2019-05-29T03:47:27.391Z,25.70
2019-05-29T03:50:16.643Z,28.57
2019-05-29T03:53:04.211Z,27.30
2019-05-29T03:55:51.848Z,27.87
2019-05-29T03:58:39.860Z,29.60
2019-05-29T04:01:29.125Z,24.93
2019-05-29T04:04:16.862Z,29.63
2019-05-29T04:07:04.571Z,29.97
2019-05-29T04:09:52.474Z,25.57
2019-05-29T04:12:40.398Z,26.00
2019-05-29T04:15:31.507Z,29.83
2019-05-29T04:18:23.035Z,30.47
2019-05-29T04:21:11.617Z,27.37
2019-05-29T04:24:00.593Z,28.33
2019-05-29T04:26:50.625Z,27.83
2019-05-29T04:29:38.434Z,29.53
2019-05-29T04:32:27.990Z,25.57
2019-05-29T04:35:15.918Z,27.87
2019-05-29T04:38:03.598Z,28.30
2019-05-29T04:40:51.554Z,29.97
2019-05-29T04:43:39.990Z,26.83
2019-05-29T04:46:29.494Z,26.97
2019-05-29T04:49:20.178Z,30.67
2019-05-29T04:52:07.178Z,30.30
2019-05-29T04:54:55.112Z,26.03
2019-05-29T04:57:43.114Z,26.67
2019-05-29T05:00:32.971Z,29.17
2019-05-29T05:03:20.846Z,26.80
2019-05-29T05:06:08.554Z,25.73
2019-05-29T05:08:56.296Z,23.57
2019-05-29T05:11:44.419Z,23.83
2019-05-29T05:14:33.616Z,24.83
2019-05-29T05:17:26.256Z,24.60
2019-05-29T05:20:11.226Z,22.37
2019-05-29T05:22:58.916Z,22.83
2019-05-29T05:25:46.889Z,22.10
2019-05-29T05:28:34.841Z,24.93
2019-05-29T05:31:22.745Z,21.90
2019-05-29T05:34:10.730Z,23.33
2019-05-29T05:36:58.712Z,23.10
2019-05-29T05:39:46.521Z,24.77
2019-05-29T05:42:34.866Z,22.73
2019-05-29T05:45:22.955Z,25.07
2019-05-29T05:48:11.422Z,22.37
2019-05-29T05:50:59.208Z,21.07
2019-05-29T05:53:47.025Z,22.17
2019-05-29T05:56:35.579Z,20.53
2019-05-29T05:59:23.990Z,18.37
2019-05-29T06:02:11.810Z,18.63
2019-05-29T06:04:59.781Z,19.20
2019-05-29T06:07:47.616Z,18.63
2019-05-29T06:10:36.105Z,20.70
2019-05-29T06:13:24.182Z,18.13
2019-05-29T06:16:12.021Z,17.47
2019-05-29T06:18:59.858Z,15.67
2019-05-29T06:21:47.717Z,19.40
2019-05-29T06:24:35.363Z,17.70
2019-05-29T06:27:23.196Z,16.20
2019-05-29T06:30:11.411Z,15.93
2019-05-29T06:32:59.488Z,15.33
2019-05-29T06:35:47.138Z,19.07
2019-05-29T06:38:35.593Z,16.93
2019-05-29T06:41:23.548Z,16.33
2019-05-29T06:44:11.389Z,17.70
2019-05-29T06:46:59.278Z,15.40
2019-05-29T06:49:47.242Z,17.67
2019-05-29T06:52:35.336Z,17.00
2019-05-29T06:55:23.573Z,13.63
2019-05-29T06:58:11.556Z,13.40
2019-05-29T07:00:59.293Z,14.30
2019-05-29T07:03:48.191Z,15.57
2019-05-29T07:06:36.546Z,16.47
2019-05-29T07:09:24.581Z,15.50
2019-05-29T07:12:12.189Z,11.73
2019-05-29T07:14:59.929Z,12.10
2019-05-29T07:17:48.177Z,18.57
2019-05-29T07:20:36.522Z,13.53
2019-05-29T07:23:24.610Z,10.77
2019-05-29T07:26:12.573Z,9.27
2019-05-29T07:29:08.058Z,8.60
2019-05-29T07:31:50.313Z,9.87
2019-05-29T07:34:51.248Z,9.17
2019-05-29T07:37:27.867Z,8.43
2019-05-29T07:40:16.220Z,7.90
2019-05-29T07:43:04.167Z,7.17
2019-05-29T07:45:51.853Z,7.90
2019-05-29T07:48:40.375Z,8.73
2019-05-29T07:51:28.349Z,7.87
2019-05-29T07:54:16.464Z,6.97
2019-05-29T07:57:04.451Z,8.73
2019-05-29T07:59:52.460Z,10.23
2019-05-29T08:02:41.329Z,7.80
2019-05-29T08:05:29.656Z,8.67
2019-05-29T08:08:17.699Z,10.87
2019-05-29T08:11:05.268Z,14.43
2019-05-29T08:13:52.856Z,8.80
2019-05-29T08:16:41.922Z,6.47
2019-05-29T08:19:31.452Z,8.70
2019-05-29T08:22:33.234Z,6.90
2019-05-29T08:25:09.299Z,6.47
2019-05-29T08:27:57.297Z,6.90
2019-05-29T08:30:48.400Z,7.20
2019-05-29T08:33:35.392Z,6.20
2019-05-29T08:36:23.524Z,5.83
2019-05-29T08:39:11.420Z,6.30
2019-05-29T08:42:21.305Z,6.40
2019-05-29T08:44:50.040Z,6.17
2019-05-29T08:47:37.991Z,7.50
2019-05-29T08:50:25.947Z,9.13
2019-05-29T08:53:13.806Z,7.63
2019-05-29T08:56:01.478Z,7.50
2019-05-29T08:58:50.616Z,7.67
2019-05-29T09:01:38.635Z,8.20
2019-05-29T09:04:26.521Z,8.53
2019-05-29T09:07:14.504Z,7.73
2019-05-29T09:10:03.201Z,9.67
2019-05-29T09:13:02.223Z,12.40
2019-05-29T09:15:40.268Z,9.53
2019-05-29T09:18:28.149Z,7.83
2019-05-29T09:21:17.454Z,7.40
2019-05-29T09:24:05.938Z,6.63
2019-05-29T09:26:53.765Z,7.53
2019-05-29T09:29:41.662Z,7.27
2019-05-29T09:32:48.654Z,6.27
2019-05-29T09:35:20.176Z,6.47
2019-05-29T09:38:08.689Z,7.87
2019-05-29T09:40:56.288Z,8.40
2019-05-29T09:43:58.138Z,6.27
2019-05-29T09:46:33.620Z,5.37
2019-05-29T09:49:21.926Z,5.63
2019-05-29T09:52:09.733Z,6.30
2019-05-29T09:54:58.273Z,5.77
2019-05-29T09:57:46.299Z,5.43
2019-05-29T10:00:34.136Z,4.77
2019-05-29T10:03:22.240Z,5.30
2019-05-29T10:06:10.263Z,5.00
2019-05-29T10:08:59.691Z,6.40
2019-05-29T10:11:47.541Z,6.30
2019-05-29T10:14:35.300Z,5.23
2019-05-29T10:17:23.204Z,6.50
2019-05-29T10:20:13.456Z,4.47
2019-05-29T10:23:01.181Z,6.37
2019-05-29T10:25:49.111Z,6.80
2019-05-29T10:28:50.360Z,4.83
2019-05-29T10:31:26.929Z,4.77
2019-05-29T10:34:15.029Z,4.60
2019-05-29T10:37:02.820Z,4.80
2019-05-29T10:39:50.966Z,4.47
2019-05-29T10:42:39.016Z,4.70
2019-05-29T10:45:26.937Z,4.43
2019-05-29T10:48:14.884Z,4.30
2019-05-29T10:51:02.692Z,4.97
2019-05-29T10:53:52.622Z,6.37
2019-05-29T10:56:40.723Z,3.60
2019-05-29T10:59:28.745Z,4.53
2019-05-29T11:02:16.921Z,4.27
2019-05-29T11:05:05.775Z,3.40
2019-05-29T11:07:53.995Z,4.23
2019-05-29T11:10:42.129Z,6.33
2019-05-29T11:13:29.761Z,5.23
2019-05-29T11:16:17.684Z,5.10
2019-05-29T11:19:05.362Z,5.57
2019-05-29T11:21:54.280Z,6.33
2019-05-29T11:24:43.124Z,5.20
2019-05-29T11:27:31.407Z,7.00
2019-05-29T11:30:19.349Z,5.40
2019-05-29T11:33:07.241Z,4.47
2019-05-29T11:36:08.957Z,9.57
2019-05-29T11:38:45.420Z,5.33
2019-05-29T11:41:33.276Z,5.57
2019-05-29T11:44:20.866Z,5.13
2019-05-29T11:47:08.675Z,5.87
2019-05-29T11:50:07.382Z,4.33
2019-05-29T11:52:46.173Z,3.73
2019-05-29T11:55:34.012Z,4.20
2019-05-29T11:58:30.921Z,4.03
2019-05-29T12:01:11.428Z,4.23
2019-05-29T12:04:18.417Z,6.03
2019-05-29T12:06:48.905Z,4.97
2019-05-29T12:09:36.674Z,5.73
2019-05-29T12:12:24.688Z,4.30
2019-05-29T12:15:17.095Z,4.17
2019-05-29T12:18:20.062Z,4.57
2019-05-29T12:20:53.999Z,4.87
2019-05-29T12:23:42.020Z,3.80
2019-05-29T12:26:30.004Z,3.30
2019-05-29T12:29:17.890Z,3.87
2019-05-29T12:32:09.391Z,5.50
2019-05-29T12:34:56.905Z,3.87
2019-05-29T12:37:45.111Z,3.87
2019-05-29T12:40:32.724Z,5.07
2019-05-29T12:43:27.042Z,3.70
2019-05-29T12:46:10.463Z,3.33
2019-05-29T12:48:59.446Z,3.90
2019-05-29T12:51:47.111Z,3.20
2019-05-29T12:54:34.949Z,4.17
2019-05-29T12:57:23.588Z,4.33
2019-05-29T13:00:15.960Z,3.43
2019-05-29T13:03:05.221Z,4.47
2019-05-29T13:05:54.143Z,5.03
2019-05-29T13:08:42.041Z,3.50
2019-05-29T13:11:29.935Z,3.07
2019-05-29T13:14:17.744Z,3.33
2019-05-29T13:17:05.723Z,5.63
2019-05-29T13:19:57.555Z,2.40
2019-05-29T13:22:42.769Z,2.43
2019-05-29T13:25:30.552Z,2.17
2019-05-29T13:28:18.345Z,2.50
2019-05-29T13:31:06.812Z,1.80
2019-05-29T13:33:55.618Z,1.90
2019-05-29T13:36:43.285Z,1.73
2019-05-29T13:39:31.172Z,2.73
2019-05-29T13:42:19.105Z,1.60
2019-05-29T13:45:17.390Z,1.80
2019-05-29T13:47:57.423Z,1.37
2019-05-29T13:50:48.813Z,1.20
2019-05-29T13:53:36.935Z,2.73
2019-05-29T13:56:25.490Z,1.80
2019-05-29T13:59:13.385Z,1.40
2019-05-29T14:02:04.718Z,1.43
2019-05-29T14:04:50.592Z,2.57
2019-05-29T14:07:38.401Z,2.33
2019-05-29T14:10:26.485Z,1.50
2019-05-29T14:13:14.225Z,1.30
2019-05-29T14:16:02.364Z,1.33
2019-05-29T14:18:51.079Z,1.17
2019-05-29T14:21:39.172Z,1.03
2019-05-29T14:24:29.806Z,2.27
2019-05-29T14:27:16.583Z,2.20
2019-05-29T14:30:10.959Z,1.40
2019-05-29T14:32:59.014Z,2.10
2019-05-29T14:35:46.960Z,1.23
2019-05-29T14:38:34.416Z,1.63
2019-05-29T14:41:21.938Z,1.60
2019-05-29T14:44:10.048Z,1.30
2019-05-29T14:46:59.052Z,1.97
2019-05-29T14:49:47.203Z,1.50
2019-05-29T14:52:35.418Z,1.53
2019-05-29T14:55:23.093Z,1.40
2019-05-29T14:58:11.872Z,1.30
2019-05-29T15:00:59.748Z,1.17
2019-05-29T15:03:47.584Z,1.33
2019-05-29T15:06:35.581Z,1.53
2019-05-29T15:09:23.686Z,1.40
2019-05-29T15:12:12.133Z,3.23
2019-05-29T15:15:00.348Z,1.47
2019-05-29T15:17:48.313Z,1.43
2019-05-29T15:20:36.131Z,1.60
2019-05-29T15:23:24.456Z,1.70
2019-05-29T15:26:12.184Z,2.90
2019-05-29T15:28:59.929Z,1.40
2019-05-29T15:31:47.764Z,2.43
2019-05-29T15:34:35.342Z,1.90
2019-05-29T15:37:23.292Z,2.43
2019-05-29T15:40:12.880Z,1.70
2019-05-29T15:43:00.669Z,1.90
2019-05-29T15:45:48.689Z,1.60
2019-05-29T15:48:36.482Z,1.40
2019-05-29T15:51:24.444Z,1.40
2019-05-29T15:54:13.399Z,3.47
2019-05-29T15:57:01.085Z,3.20
2019-05-29T15:59:48.904Z,1.80
2019-05-29T16:02:36.859Z,1.50
2019-05-29T16:05:24.305Z,2.10
2019-05-29T16:08:12.202Z,1.97
2019-05-29T16:10:59.803Z,2.23
2019-05-29T16:13:47.472Z,2.23
2019-05-29T16:16:35.371Z,2.17
2019-05-29T16:19:23.006Z,1.80
2019-05-29T16:22:10.872Z,2.40
2019-05-29T16:24:58.636Z,2.27
2019-05-29T16:27:46.356Z,3.47
2019-05-29T16:30:34.120Z,2.17
2019-05-29T16:33:23.257Z,2.57
2019-05-29T16:36:12.535Z,4.13
2019-05-29T16:39:00.669Z,3.43
2019-05-29T16:41:48.928Z,2.90
2019-05-29T16:44:36.720Z,3.27
2019-05-29T16:47:24.648Z,2.73
2019-05-29T16:50:13.077Z,2.50
2019-05-29T16:53:01.132Z,3.33
2019-05-29T16:55:53.747Z,2.93
2019-05-29T16:58:38.889Z,2.97
2019-05-29T17:01:26.853Z,3.97
2019-05-29T17:04:15.524Z,6.87
2019-05-29T17:07:03.881Z,3.67
2019-05-29T17:09:51.405Z,4.47
2019-05-29T17:12:39.338Z,2.90
2019-05-29T17:15:27.211Z,2.70
2019-05-29T17:18:15.008Z,4.27
2019-05-29T17:21:02.788Z,2.87
2019-05-29T17:23:50.484Z,3.03
2019-05-29T17:26:38.446Z,3.83
2019-05-29T17:29:26.425Z,2.70
2019-05-29T17:32:14.788Z,4.10
2019-05-29T17:35:03.777Z,3.43
2019-05-29T17:37:51.616Z,2.80
2019-05-29T17:40:39.508Z,4.87
2019-05-29T17:43:28.602Z,5.03
2019-05-29T17:46:19.194Z,4.17
2019-05-29T17:49:07.268Z,4.83
2019-05-29T17:51:55.092Z,3.93
2019-05-29T17:54:43.137Z,2.63
2019-05-29T17:57:31.112Z,3.60
2019-05-29T18:00:22.307Z,2.83
2019-05-29T18:03:10.449Z,2.63
2019-05-29T18:05:58.484Z,2.83
2019-05-29T18:08:46.537Z,2.33
2019-05-29T18:11:34.389Z,3.57
2019-05-29T18:14:23.278Z,4.20
2019-05-29T18:17:11.469Z,2.80
2019-05-29T18:19:59.499Z,2.80
2019-05-29T18:22:47.579Z,2.10
2019-05-29T18:25:35.529Z,3.10
2019-05-29T18:28:24.131Z,3.80
2019-05-29T18:31:14.980Z,3.70
2019-05-29T18:34:03.009Z,2.40
2019-05-29T18:36:50.683Z,2.43
2019-05-29T18:39:38.555Z,2.90
2019-05-29T18:42:27.340Z,3.30
2019-05-29T18:45:20.775Z,2.90
2019-05-29T18:48:06.983Z,2.90
2019-05-29T18:50:54.916Z,3.27
2019-05-29T18:53:42.840Z,3.30
2019-05-29T18:56:30.760Z,3.50
2019-05-29T18:59:19.241Z,5.63
2019-05-29T19:02:07.288Z,5.10
2019-05-29T19:04:55.356Z,5.93
2019-05-29T19:07:43.264Z,6.20
2019-05-29T19:10:31.875Z,6.33
2019-05-29T19:13:19.819Z,8.10
2019-05-29T19:16:07.856Z,7.07
2019-05-29T19:18:55.812Z,5.63
2019-05-29T19:21:43.692Z,4.57
2019-05-29T19:24:32.690Z,4.47
2019-05-29T19:27:32.093Z,4.60
2019-05-29T19:30:11.144Z,5.67
2019-05-29T19:32:59.073Z,5.30
2019-05-29T19:35:47.353Z,4.77
2019-05-29T19:38:34.652Z,4.73
2019-05-29T19:41:23.807Z,5.50
2019-05-29T19:44:11.818Z,4.90
2019-05-29T19:46:59.749Z,5.60
2019-05-29T19:49:47.796Z,5.27
2019-05-29T19:52:35.683Z,4.23
2019-05-29T19:55:23.672Z,6.17
2019-05-29T19:58:11.836Z,4.43
2019-05-29T20:00:59.756Z,4.80
2019-05-29T20:03:47.368Z,5.20
2019-05-29T20:06:35.410Z,7.57
2019-05-29T20:09:23.566Z,9.17
2019-05-29T20:12:11.177Z,6.33
2019-05-29T20:14:58.969Z,6.63
2019-05-29T20:17:46.624Z,7.17
2019-05-29T20:20:34.681Z,6.80
2019-05-29T20:23:22.489Z,8.57
2019-05-29T20:26:11.669Z,8.05
2019-05-29T20:28:59.157Z,8.30
2019-05-29T20:31:47.242Z,9.47
2019-05-29T20:34:35.188Z,10.03
2019-05-29T20:37:22.870Z,9.83
2019-05-29T20:40:10.460Z,8.53
2019-05-29T20:42:58.372Z,8.00
2019-05-29T20:45:45.905Z,6.77
2019-05-29T20:48:34.594Z,8.30
2019-05-29T20:51:22.658Z,6.70
2019-05-29T20:54:10.759Z,6.90
2019-05-29T20:57:01.955Z,6.47
2019-05-29T20:59:49.977Z,7.60
2019-05-29T21:02:38.181Z,7.30
2019-05-29T21:05:26.272Z,8.17
2019-05-29T21:08:14.309Z,7.23
2019-05-29T21:11:02.402Z,7.40
2019-05-29T21:13:50.261Z,6.80
2019-05-29T21:16:38.091Z,9.37
2019-05-29T21:19:26.069Z,7.33
2019-05-29T21:22:13.847Z,7.80
2019-05-29T21:25:08.190Z,6.47
2019-05-29T21:27:51.267Z,6.30
2019-05-29T21:30:39.500Z,6.63
2019-05-29T21:33:27.521Z,9.70
2019-05-29T21:36:15.329Z,6.30
2019-05-29T21:39:03.578Z,6.03
2019-05-29T21:41:51.397Z,6.27
2019-05-29T21:44:40.639Z,6.90
2019-05-29T21:47:28.590Z,7.87
2019-05-29T21:50:16.640Z,7.50
2019-05-29T21:53:04.326Z,7.27
2019-05-29T21:55:52.433Z,6.60
2019-05-29T21:58:54.463Z,7.57
2019-05-29T22:01:30.735Z,7.23
2019-05-29T22:04:18.537Z,9.57
2019-05-29T22:07:06.701Z,7.00
2019-05-29T22:09:54.853Z,6.83
2019-05-29T22:12:42.742Z,8.10
2019-05-29T22:15:30.336Z,6.53
2019-05-29T22:18:18.262Z,7.30
2019-05-29T22:21:06.044Z,6.90
2019-05-29T22:23:55.046Z,10.47
2019-05-29T22:26:43.039Z,7.93
2019-05-29T22:29:30.945Z,7.87
2019-05-29T22:32:18.850Z,7.27
2019-05-29T22:35:07.044Z,7.30
2019-05-29T22:37:55.744Z,7.60
2019-05-29T22:40:43.629Z,6.87
2019-05-29T22:43:31.828Z,8.57
2019-05-29T22:46:19.693Z,7.57
2019-05-29T22:49:07.728Z,7.57
2019-05-29T22:51:55.691Z,8.50
2019-05-29T22:54:43.788Z,7.87
2019-05-29T22:57:31.449Z,7.87
2019-05-29T23:00:20.185Z,7.83
2019-05-29T23:03:07.543Z,8.07
2019-05-29T23:05:56.106Z,7.60
2019-05-29T23:08:43.833Z,7.60
2019-05-29T23:11:31.702Z,8.67
2019-05-29T23:14:19.481Z,7.67
2019-05-29T23:17:07.252Z,8.10
2019-05-29T23:19:56.440Z,8.17
2019-05-29T23:22:44.303Z,8.63
2019-05-29T23:25:32.117Z,9.47
2019-05-29T23:28:20.092Z,8.37
2019-05-29T23:31:07.997Z,9.50
2019-05-29T23:33:56.937Z,7.90
2019-05-29T23:36:44.749Z,8.10
2019-05-29T23:39:32.353Z,9.37
2019-05-29T23:42:20.405Z,8.40
2019-05-29T23:45:08.602Z,8.30
2019-05-29T23:47:57.592Z,7.77
2019-05-29T23:50:45.411Z,8.40
2019-05-29T23:53:33.497Z,10.83
2019-05-29T23:56:21.296Z,8.43
2019-05-29T23:59:09.001Z,7.27
